Time;durP1;ratioP1;P1;durP2;ratioP2;P2;SDS_P1;SDS_P2;PMS_P1;PMS_P2;Temp;Humidity;BMP_temperature;BMP_pressure;BME280_temperature;BME280_humidity;BME280_pressure;Samples;Min_cycle;Max_cycle;Signal;HPM_P1;HPM_P2
2022/08/18 00:00:01;;;;;;;;;;;12.90;99.90;;;;;;5094543;28;19912;-69
2022/08/18 00:02:29;;;;;;;;;;;12.90;99.90;;;;;;5094502;28;19999;-69
2022/08/18 00:04:56;;;;;;;;;;;13.00;99.90;;;;;;5094535;28;19908;-69
2022/08/18 00:07:24;;;;;;;;;;;13.10;99.90;;;;;;5094473;28;19983;-69
2022/08/18 00:09:51;;;;;;;;;;;13.30;99.90;;;;;;5094431;28;19946;-70
2022/08/18 00:12:20;;;;;;;;;;;13.30;99.90;;;;;;5094162;28;19908;-70
2022/08/18 00:14:47;;;;;;;;;;;13.30;99.90;;;;;;5094507;28;19912;-69
2022/08/18 00:17:15;;;;;;;;;;;13.30;99.90;;;;;;5094201;28;19908;-69
2022/08/18 00:19:42;;;;;;;;;;;13.30;99.90;;;;;;5093069;28;19916;-70
2022/08/18 00:22:09;;;;;;;;;;;13.30;99.90;;;;;;5093961;28;20010;-71
2022/08/18 00:24:37;;;;;;;;;;;13.20;99.90;;;;;;5094268;28;20051;-71
2022/08/18 00:27:04;;;;;;;;;;;13.30;99.90;;;;;;5094038;28;20279;-71
2022/08/18 00:29:31;;;;;;;;;;;13.40;99.90;;;;;;5094202;28;19946;-70
2022/08/18 00:31:58;;;;;;;;;;;13.50;99.90;;;;;;5094046;28;19908;-69
2022/08/18 00:34:25;;;;;;;;;;;13.50;99.90;;;;;;5093805;28;19940;-71
2022/08/18 00:36:51;;;;;;;;;;;13.50;99.90;;;;;;5094110;28;19912;-71
2022/08/18 00:39:18;;;;;;;;;;;13.50;99.90;;;;;;5093708;28;19931;-69
2022/08/18 00:41:45;;;;;;;;;;;13.60;99.90;;;;;;5093764;28;20290;-71
2022/08/18 00:44:15;;;;;;;;;;;13.60;99.90;;;;;;5093606;28;20422;-71
2022/08/18 00:46:41;;;;;;;;;;;13.70;99.90;;;;;;5092449;28;19999;-71
2022/08/18 00:49:08;;;;;;;;;;;13.70;99.90;;;;;;5093885;28;19932;-71
2022/08/18 00:51:38;;;;;;;;;;;13.80;99.90;;;;;;5093726;28;19908;-70
2022/08/18 00:54:07;;;;;;;;;;;13.90;99.90;;;;;;5093664;28;20393;-69
2022/08/18 00:56:36;;;;;;;;;;;14.00;99.90;;;;;;5093567;28;19908;-71
2022/08/18 00:59:03;;;;;;;;;;;14.00;99.90;;;;;;5093638;28;20274;-71
2022/08/18 01:01:31;;;;;;;;;;;14.00;99.90;;;;;;5093660;28;19995;-71
2022/08/18 01:04:02;;;;;;;;;;;14.10;99.90;;;;;;5093735;28;19916;-71
2022/08/18 01:06:40;;;;;;;;;;;14.10;99.90;;;;;;5093661;28;19962;-71
2022/08/18 01:09:07;;;;;;;;;;;14.10;99.90;;;;;;5093465;28;19939;-71
2022/08/18 01:11:36;;;;;;;;;;;14.10;99.90;;;;;;5093599;28;20377;-71
2022/08/18 01:14:07;;;;;;;;;;;14.20;99.90;;;;;;5093308;28;19950;-71
2022/08/18 01:22:12;;;;;;;;;;;14.60;99.90;;;;;;5093255;28;19953;-70
2022/08/18 01:27:25;;;;;;;;;;;15.70;99.90;;;;;;5093377;28;19995;-70
2022/08/18 01:29:53;;;;;;;;;;;16.60;99.90;;;;;;5093430;28;19955;-70
2022/08/18 01:32:22;;;;;;;;;;;16.90;99.90;;;;;;5093157;28;19916;-71
2022/08/18 01:34:50;;;;;;;;;;;16.70;99.90;;;;;;5093390;28;19915;-72
2022/08/18 01:37:18;;;;;;;;;;;16.40;99.90;;;;;;5093335;28;19912;-71
2022/08/18 01:39:46;;;;;;;;;;;16.20;99.90;;;;;;5093353;28;20351;-71
2022/08/18 01:42:15;;;;;;;;;;;16.10;99.90;;;;;;5091633;28;19915;-70
2022/08/18 01:44:43;;;;;;;;;;;16.10;99.90;;;;;;5093113;28;19915;-71
2022/08/18 01:47:11;;;;;;;;;;;16.00;99.90;;;;;;5093370;28;19962;-71
2022/08/18 01:49:41;;;;;;;;;;;16.00;99.90;;;;;;5093186;28;19915;-70
2022/08/18 01:52:09;;;;;;;;;;;16.00;99.90;;;;;;5095894;28;19908;-70
2022/08/18 01:54:37;;;;;;;;;;;16.00;99.90;;;;;;5097157;28;20419;-71
2022/08/18 01:57:03;;;;;;;;;;;16.10;99.90;;;;;;5096920;28;19994;-70
2022/08/18 01:59:30;;;;;;;;;;;16.00;99.90;;;;;;5097087;28;19916;-71
2022/08/18 02:01:59;;;;;;;;;;;16.00;99.90;;;;;;5097288;28;20378;-71
2022/08/18 02:04:28;;;;;;;;;;;16.10;99.90;;;;;;5096739;28;19908;-71
2022/08/18 02:06:54;;;;;;;;;;;16.10;99.90;;;;;;5097085;28;19912;-70
2022/08/18 02:09:21;;;;;;;;;;;16.20;99.90;;;;;;5096903;28;20270;-70
2022/08/18 02:11:48;;;;;;;;;;;16.40;99.90;;;;;;5096756;28;19909;-71
2022/08/18 02:14:15;;;;;;;;;;;16.70;99.90;;;;;;5096670;28;19915;-70
2022/08/18 02:16:41;;;;;;;;;;;16.90;99.90;;;;;;5096765;28;20390;-70
2022/08/18 02:19:08;;;;;;;;;;;16.90;99.90;;;;;;5096637;28;19923;-70
2022/08/18 02:21:35;;;;;;;;;;;17.00;99.90;;;;;;5097073;28;20342;-68
2022/08/18 02:24:01;;;;;;;;;;;17.00;99.90;;;;;;5096267;28;19946;-69
2022/08/18 02:26:28;;;;;;;;;;;17.00;99.90;;;;;;5096467;28;19922;-69
2022/08/18 02:28:55;;;;;;;;;;;17.00;99.90;;;;;;5096554;28;19908;-69
2022/08/18 02:31:23;;;;;;;;;;;16.90;99.90;;;;;;5096675;28;19908;-69
2022/08/18 02:33:50;;;;;;;;;;;16.80;99.90;;;;;;5096698;28;19915;-70
2022/08/18 02:36:17;;;;;;;;;;;16.70;99.90;;;;;;5096100;28;19920;-69
2022/08/18 02:38:43;;;;;;;;;;;16.70;99.90;;;;;;5096172;28;19948;-69
2022/08/18 02:41:11;;;;;;;;;;;16.90;99.90;;;;;;5096208;28;19908;-69
2022/08/18 02:43:39;;;;;;;;;;;16.90;98.80;;;;;;5096165;28;19915;-69
2022/08/18 02:46:06;;;;;;;;;;;16.90;97.70;;;;;;5095770;28;19924;-69
2022/08/18 02:48:36;;;;;;;;;;;16.90;97.90;;;;;;5096103;28;19908;-69
2022/08/18 02:51:05;;;;;;;;;;;17.00;96.80;;;;;;5095912;28;20439;-69
2022/08/18 02:53:32;;;;;;;;;;;17.10;97.40;;;;;;5096060;28;19915;-69
2022/08/18 02:56:28;;;;;;;;;;;17.10;97.30;;;;;;5094605;28;19908;-69
2022/08/18 02:59:00;;;;;;;;;;;17.10;97.50;;;;;;5095279;28;19958;-69
2022/08/18 03:01:28;;;;;;;;;;;17.10;98.30;;;;;;5066112;28;19919;-70
2022/08/18 03:03:55;;;;;;;;;;;17.10;97.90;;;;;;5053568;28;19915;-69
2022/08/18 03:06:23;;;;;;;;;;;17.30;97.80;;;;;;5054602;28;19919;-68
2022/08/18 03:08:51;;;;;;;;;;;17.30;97.10;;;;;;5054752;28;20279;-69
2022/08/18 03:11:18;;;;;;;;;;;17.30;97.50;;;;;;5054587;28;19909;-69
2022/08/18 03:13:46;;;;;;;;;;;17.30;97.60;;;;;;5054734;28;19909;-69
2022/08/18 03:16:14;;;;;;;;;;;17.30;97.10;;;;;;5075968;28;19908;-70
2022/08/18 03:18:41;;;;;;;;;;;17.50;96.70;;;;;;5095537;28;19923;-69
2022/08/18 03:21:09;;;;;;;;;;;17.40;96.80;;;;;;5095517;28;19915;-69
2022/08/18 03:23:39;;;;;;;;;;;17.30;97.30;;;;;;5095581;28;19908;-69
2022/08/18 03:26:10;;;;;;;;;;;17.40;96.80;;;;;;5095159;28;19908;-70
2022/08/18 03:28:41;;;;;;;;;;;17.50;97.00;;;;;;5095555;28;19915;-69
2022/08/18 03:31:09;;;;;;;;;;;17.50;97.40;;;;;;5095401;28;19908;-69
2022/08/18 03:33:36;;;;;;;;;;;17.80;97.10;;;;;;5095446;28;20250;-69
2022/08/18 03:36:04;;;;;;;;;;;17.90;97.00;;;;;;5095007;28;20320;-68
2022/08/18 03:38:31;;;;;;;;;;;17.90;96.90;;;;;;5095240;28;19916;-68
2022/08/18 03:40:58;;;;;;;;;;;18.00;96.90;;;;;;5094987;28;20252;-68
2022/08/18 03:43:26;;;;;;;;;;;18.00;97.00;;;;;;5095172;28;19908;-68
2022/08/18 03:45:53;;;;;;;;;;;17.80;96.90;;;;;;5094849;28;19927;-68
2022/08/18 03:48:20;;;;;;;;;;;17.70;97.10;;;;;;5094731;28;19908;-68
2022/08/18 03:50:48;;;;;;;;;;;17.80;97.40;;;;;;5094992;28;20282;-69
2022/08/18 03:53:15;;;;;;;;;;;17.70;97.50;;;;;;5094902;28;19908;-68
2022/08/18 03:55:41;;;;;;;;;;;17.60;97.50;;;;;;5094836;28;19912;-68
2022/08/18 03:58:12;;;;;;;;;;;17.80;96.60;;;;;;5094673;28;19915;-68
2022/08/18 04:00:39;;;;;;;;;;;17.90;96.90;;;;;;5094940;28;19940;-68
2022/08/18 04:03:06;;;;;;;;;;;17.70;97.30;;;;;;5094802;28;19908;-69
2022/08/18 04:05:36;;;;;;;;;;;17.50;97.40;;;;;;5094647;28;19919;-69
2022/08/18 04:08:05;;;;;;;;;;;17.50;97.60;;;;;;5094378;28;19930;-69
2022/08/18 04:10:32;;;;;;;;;;;17.70;98.00;;;;;;5094404;28;19950;-69
2022/08/18 04:12:59;;;;;;;;;;;17.70;97.70;;;;;;5094474;28;19915;-69
2022/08/18 04:15:26;;;;;;;;;;;17.80;97.90;;;;;;5093912;28;19908;-69
2022/08/18 04:17:53;;;;;;;;;;;17.90;97.20;;;;;;5094358;28;19917;-70
2022/08/18 04:20:20;;;;;;;;;;;18.00;97.40;;;;;;5094024;28;19912;-71
2022/08/18 04:22:47;;;;;;;;;;;18.20;97.00;;;;;;5094170;28;19919;-69
2022/08/18 04:25:13;;;;;;;;;;;18.30;96.70;;;;;;5094140;28;19908;-70
2022/08/18 04:27:42;;;;;;;;;;;18.40;96.10;;;;;;5094215;28;20311;-70
2022/08/18 04:30:10;;;;;;;;;;;18.40;96.60;;;;;;5093929;28;19967;-70
2022/08/18 04:32:36;;;;;;;;;;;18.60;95.90;;;;;;5093927;28;19912;-71
2022/08/18 04:35:03;;;;;;;;;;;18.50;95.80;;;;;;5093999;28;19935;-70
2022/08/18 04:37:31;;;;;;;;;;;18.50;96.00;;;;;;5093913;28;19912;-70
2022/08/18 04:39:58;;;;;;;;;;;18.30;96.00;;;;;;5093722;28;19922;-70
2022/08/18 04:42:25;;;;;;;;;;;18.10;96.00;;;;;;5093722;28;19915;-69
2022/08/18 04:44:52;;;;;;;;;;;18.00;96.70;;;;;;5093627;28;19919;-70
2022/08/18 04:47:19;;;;;;;;;;;18.10;96.60;;;;;;5093720;28;19957;-70
2022/08/18 04:49:45;;;;;;;;;;;18.10;97.30;;;;;;5093789;28;19908;-70
2022/08/18 04:54:57;;;;;;;;;;;18.50;97.50;;;;;;5063657;28;19927;-69
2022/08/18 04:57:23;;;;;;;;;;;18.50;96.50;;;;;;5052927;28;20395;-69
2022/08/18 04:59:51;;;;;;;;;;;18.50;96.50;;;;;;5052536;28;19984;-69
2022/08/18 05:02:18;;;;;;;;;;;18.70;96.30;;;;;;5052358;28;20291;-69
2022/08/18 05:04:48;;;;;;;;;;;18.70;96.40;;;;;;5081750;28;19912;-68
2022/08/18 05:07:16;;;;;;;;;;;18.60;96.40;;;;;;5092224;28;20006;-69
2022/08/18 05:09:43;;;;;;;;;;;18.50;96.20;;;;;;5093213;28;19908;-71
2022/08/18 05:12:13;;;;;;;;;;;18.60;96.10;;;;;;5093055;28;19914;-69
2022/08/18 05:14:40;;;;;;;;;;;18.70;95.80;;;;;;5093405;28;20371;-70
2022/08/18 05:17:07;;;;;;;;;;;18.70;96.30;;;;;;5093333;28;19912;-69
2022/08/18 05:19:34;;;;;;;;;;;18.60;96.00;;;;;;5093209;28;19924;-69
2022/08/18 05:22:01;;;;;;;;;;;18.50;95.20;;;;;;5093382;28;19919;-70
2022/08/18 05:24:29;;;;;;;;;;;18.40;96.20;;;;;;5092969;28;19922;-70
2022/08/18 05:26:55;;;;;;;;;;;18.40;96.60;;;;;;5092472;28;20382;-70
2022/08/18 05:29:22;;;;;;;;;;;18.60;96.40;;;;;;5093354;28;19915;-70
2022/08/18 05:31:50;;;;;;;;;;;18.50;95.90;;;;;;5093257;28;19909;-69
2022/08/18 05:34:19;;;;;;;;;;;18.50;96.20;;;;;;5093024;28;20000;-70
2022/08/18 05:36:49;;;;;;;;;;;18.40;96.20;;;;;;5093113;28;20451;-70
2022/08/18 05:39:25;;;;;;;;;;;18.50;96.60;;;;;;5068229;28;19920;-70
2022/08/18 05:41:54;;;;;;;;;;;18.40;96.70;;;;;;5052204;28;20332;-71
2022/08/18 05:44:26;;;;;;;;;;;18.50;97.20;;;;;;5061747;28;19912;-69
2022/08/18 05:46:53;;;;;;;;;;;18.70;97.10;;;;;;5093185;28;19920;-69
2022/08/18 05:49:20;;;;;;;;;;;18.60;97.00;;;;;;5093113;28;20425;-70
2022/08/18 05:52:13;;;;;;;;;;;18.70;99.90;;;;;;5093231;28;20350;-70
2022/08/18 05:57:31;;;;;;;;;;;18.70;99.90;;;;;;5093490;28;19962;-71
2022/08/18 05:59:58;;;;;;;;;;;18.50;99.90;;;;;;5092981;28;19916;-69
2022/08/18 06:02:41;;;;;;;;;;;18.20;99.90;;;;;;5092783;28;19969;-70
2022/08/18 06:05:20;;;;;;;;;;;18.20;99.90;;;;;;5092958;28;19935;-70
2022/08/18 06:07:56;;;;;;;;;;;18.00;99.90;;;;;;5092943;28;20308;-69
2022/08/18 06:10:23;;;;;;;;;;;17.90;99.90;;;;;;5092537;28;20378;-69
2022/08/18 06:12:57;;;;;;;;;;;17.80;99.90;;;;;;5092832;28;19908;-69
2022/08/18 06:15:30;;;;;;;;;;;17.90;99.90;;;;;;5092962;28;19908;-69
2022/08/18 06:18:08;;;;;;;;;;;17.80;99.90;;;;;;5092834;28;19920;-69
2022/08/18 06:20:35;;;;;;;;;;;17.70;99.90;;;;;;5092766;28;20373;-70
2022/08/18 06:23:09;;;;;;;;;;;17.60;99.90;;;;;;5092732;28;19908;-69
2022/08/18 06:26:04;;;;;;;;;;;17.50;99.90;;;;;;5092638;28;19908;-69
2022/08/18 06:28:52;;;;;;;;;;;17.60;99.90;;;;;;5055514;28;19916;-69
2022/08/18 06:31:39;;;;;;;;;;;17.40;99.90;;;;;;5092627;28;20000;-70
2022/08/18 06:34:16;;;;;;;;;;;17.30;99.90;;;;;;5092438;28;19935;-70
2022/08/18 06:36:49;;;;;;;;;;;17.30;99.90;;;;;;5093087;28;19908;-70
2022/08/18 06:39:30;;;;;;;;;;;17.20;99.90;;;;;;5096100;28;19916;-70
2022/08/18 06:41:57;;;;;;;;;;;17.10;99.90;;;;;;5096440;28;19912;-69
2022/08/18 06:44:38;;;;;;;;;;;17.10;99.90;;;;;;5096091;28;20011;-69
2022/08/18 06:47:05;;;;;;;;;;;17.00;99.90;;;;;;5096399;28;20011;-69
2022/08/18 06:49:41;;;;;;;;;;;16.90;99.90;;;;;;5096178;28;20362;-69
2022/08/18 06:52:27;;;;;;;;;;;16.90;99.90;;;;;;5093417;28;19919;-70
2022/08/18 06:54:56;;;;;;;;;;;16.70;99.90;;;;;;5093830;28;20177;-69
2022/08/18 06:57:26;;;;;;;;;;;16.60;99.90;;;;;;5093970;28;20386;-69
2022/08/18 07:00:01;;;;;;;;;;;16.60;99.90;;;;;;5093860;28;19928;-69
2022/08/18 07:03:03;;;;;;;;;;;16.60;99.90;;;;;;5093672;28;20286;-70
2022/08/18 07:05:31;;;;;;;;;;;16.50;99.90;;;;;;5031673;28;20364;-69
2022/08/18 07:08:04;;;;;;;;;;;16.50;99.90;;;;;;5049012;28;19963;-69
2022/08/18 07:10:36;;;;;;;;;;;16.40;99.90;;;;;;5052626;28;20348;-69
2022/08/18 07:13:28;;;;;;;;;;;16.40;99.90;;;;;;5053306;28;19913;-69
2022/08/18 07:16:14;;;;;;;;;;;16.40;99.90;;;;;;5051804;28;19974;-69
2022/08/18 07:18:42;;;;;;;;;;;16.40;99.90;;;;;;5052811;28;19921;-69
2022/08/18 07:21:09;;;;;;;;;;;16.40;99.90;;;;;;5053034;28;20438;-70
2022/08/18 07:23:38;;;;;;;;;;;16.50;99.90;;;;;;5052887;28;19955;-70
2022/08/18 07:26:07;;;;;;;;;;;16.40;99.90;;;;;;5052352;28;20368;-70
2022/08/18 07:28:35;;;;;;;;;;;16.30;99.90;;;;;;5052920;28;20330;-70
2022/08/18 07:31:24;;;;;;;;;;;16.20;99.90;;;;;;5052692;28;20295;-69
2022/08/18 07:34:04;;;;;;;;;;;16.30;99.90;;;;;;5049752;28;19921;-68
2022/08/18 07:36:37;;;;;;;;;;;16.30;99.90;;;;;;5052759;28;20204;-69
2022/08/18 07:39:13;;;;;;;;;;;16.30;99.90;;;;;;5051929;28;19917;-69
2022/08/18 07:41:42;;;;;;;;;;;16.20;99.90;;;;;;5052733;28;20390;-69
2022/08/18 07:44:15;;;;;;;;;;;16.20;99.90;;;;;;5052082;28;19908;-69
2022/08/18 07:46:45;;;;;;;;;;;16.10;99.90;;;;;;5052463;28;20462;-68
2022/08/18 07:49:17;;;;;;;;;;;16.20;99.90;;;;;;5051779;28;19966;-69
2022/08/18 07:51:47;;;;;;;;;;;16.20;99.90;;;;;;5052616;28;19912;-68
2022/08/18 07:54:28;;;;;;;;;;;16.20;99.90;;;;;;5051680;28;19924;-68
2022/08/18 07:57:02;;;;;;;;;;;16.10;99.90;;;;;;5052223;28;19955;-68
2022/08/18 07:59:40;;;;;;;;;;;16.10;99.90;;;;;;5052280;28;19917;-69
2022/08/18 08:02:10;;;;;;;;;;;16.10;99.90;;;;;;5052340;28;19912;-69
2022/08/18 08:04:55;;;;;;;;;;;16.00;99.90;;;;;;5052397;28;19917;-69
2022/08/18 08:07:30;;;;;;;;;;;16.00;99.90;;;;;;5052251;28;20438;-69
2022/08/18 08:09:56;;;;;;;;;;;16.00;99.90;;;;;;5050933;28;20334;-69
2022/08/18 08:12:38;;;;;;;;;;;15.90;99.90;;;;;;5051848;28;20302;-69
2022/08/18 08:15:16;;;;;;;;;;;15.90;99.90;;;;;;5052184;28;20052;-69
2022/08/18 08:17:58;;;;;;;;;;;15.80;99.90;;;;;;5052112;28;19992;-69
2022/08/18 08:20:31;;;;;;;;;;;15.80;99.90;;;;;;5051724;28;19979;-69
2022/08/18 08:22:57;;;;;;;;;;;15.80;99.90;;;;;;5051573;28;19955;-69
2022/08/18 08:25:30;;;;;;;;;;;15.80;99.90;;;;;;5051226;28;19920;-69
2022/08/18 08:28:09;;;;;;;;;;;15.70;99.90;;;;;;5050358;28;20281;-69
2022/08/18 08:30:51;;;;;;;;;;;15.60;99.90;;;;;;5051754;28;19916;-69
2022/08/18 08:33:18;;;;;;;;;;;15.70;99.90;;;;;;5051743;28;20256;-68
2022/08/18 08:35:44;;;;;;;;;;;15.70;99.90;;;;;;5051301;28;19913;-69
2022/08/18 08:38:14;;;;;;;;;;;15.80;99.90;;;;;;5050826;28;19951;-68
2022/08/18 08:40:41;;;;;;;;;;;15.80;99.90;;;;;;5051499;28;19920;-68
2022/08/18 08:43:10;;;;;;;;;;;15.70;99.90;;;;;;5051374;28;19913;-69
2022/08/18 08:45:41;;;;;;;;;;;15.80;99.90;;;;;;5051202;28;20046;-69
2022/08/18 08:48:23;;;;;;;;;;;15.70;99.90;;;;;;5051344;28;19920;-68
2022/08/18 08:50:54;;;;;;;;;;;15.70;99.90;;;;;;5051437;28;19909;-69
2022/08/18 08:53:47;;;;;;;;;;;15.70;99.90;;;;;;5050799;28;19920;-69
2022/08/18 08:56:16;;;;;;;;;;;15.70;99.90;;;;;;5049909;28;20015;-68
2022/08/18 08:58:45;;;;;;;;;;;15.70;99.90;;;;;;5051235;28;19928;-69
2022/08/18 09:01:27;;;;;;;;;;;15.70;99.90;;;;;;5050802;28;19909;-69
2022/08/18 09:04:03;;;;;;;;;;;15.70;99.90;;;;;;5053353;28;20023;-68
2022/08/18 09:06:40;;;;;;;;;;;15.60;99.90;;;;;;5053520;28;19916;-69
2022/08/18 09:09:25;;;;;;;;;;;15.60;99.90;;;;;;5051959;28;20326;-69
2022/08/18 09:12:10;;;;;;;;;;;15.70;99.90;;;;;;5053197;28;19948;-68
2022/08/18 09:14:49;;;;;;;;;;;15.70;99.90;;;;;;5053192;28;19959;-69
2022/08/18 09:17:28;;;;;;;;;;;15.60;99.90;;;;;;5053284;28;19963;-68
2022/08/18 09:19:55;;;;;;;;;;;15.70;99.90;;;;;;5053121;28;19916;-68
2022/08/18 09:22:28;;;;;;;;;;;15.70;99.90;;;;;;5053054;28;19913;-68
2022/08/18 09:24:56;;;;;;;;;;;15.70;99.90;;;;;;5052937;28;19948;-68
2022/08/18 09:27:22;;;;;;;;;;;15.70;99.90;;;;;;5053044;28;20402;-69
2022/08/18 09:29:51;;;;;;;;;;;15.80;99.90;;;;;;5052922;28;20299;-68
2022/08/18 09:32:17;;;;;;;;;;;15.80;99.90;;;;;;5052841;28;19996;-68
2022/08/18 09:34:44;;;;;;;;;;;15.80;99.90;;;;;;5053133;28;19976;-68
2022/08/18 09:37:17;;;;;;;;;;;15.90;99.90;;;;;;5053110;28;19909;-68
2022/08/18 09:43:06;;;;;;;;;;;15.90;99.90;;;;;;5053091;28;19971;-68
2022/08/18 09:45:33;;;;;;;;;;;16.00;99.90;;;;;;5052771;28;20367;-68
2022/08/18 09:48:02;;;;;;;;;;;15.90;99.90;;;;;;5053078;28;19915;-68
2022/08/18 09:50:36;;;;;;;;;;;15.90;99.90;;;;;;5052961;28;20355;-68
2022/08/18 09:53:36;;;;;;;;;;;15.90;99.90;;;;;;5052963;28;19954;-68
2022/08/18 09:56:03;;;;;;;;;;;16.00;99.90;;;;;;5040832;28;19909;-67
2022/08/18 09:58:48;;;;;;;;;;;16.10;99.90;;;;;;5052788;28;19920;-69
2022/08/18 10:01:35;;;;;;;;;;;16.10;99.90;;;;;;5052828;28;20290;-68
2022/08/18 10:04:14;;;;;;;;;;;16.10;99.90;;;;;;5052512;28;20050;-68
2022/08/18 10:06:45;;;;;;;;;;;16.10;99.90;;;;;;5052831;28;19913;-69
2022/08/18 10:09:25;;;;;;;;;;;16.00;99.90;;;;;;5051376;28;20389;-68
2022/08/18 10:11:57;;;;;;;;;;;16.00;99.90;;;;;;5053795;28;20343;-68
2022/08/18 10:14:24;;;;;;;;;;;16.10;99.90;;;;;;5056378;28;20398;-69
2022/08/18 10:17:00;;;;;;;;;;;16.10;99.90;;;;;;5055912;28;19909;-70
2022/08/18 10:19:45;;;;;;;;;;;16.10;99.90;;;;;;5056325;28;20006;-69
2022/08/18 10:22:12;;;;;;;;;;;16.00;99.90;;;;;;5055983;28;19908;-69
2022/08/18 10:24:38;;;;;;;;;;;16.00;99.90;;;;;;5056478;28;19909;-69
2022/08/18 10:27:13;;;;;;;;;;;16.00;99.90;;;;;;5056297;28;19909;-69
2022/08/18 10:29:51;;;;;;;;;;;16.00;99.90;;;;;;5056284;28;20373;-70
2022/08/18 10:32:22;;;;;;;;;;;16.00;99.90;;;;;;5055356;28;19915;-69
2022/08/18 10:34:54;;;;;;;;;;;16.00;99.90;;;;;;5056168;28;20261;-68
2022/08/18 10:37:22;;;;;;;;;;;16.00;99.90;;;;;;5055982;28;19909;-68
2022/08/18 10:40:12;;;;;;;;;;;15.90;99.90;;;;;;5055879;28;19917;-69
2022/08/18 10:42:38;;;;;;;;;;;15.90;99.90;;;;;;5056353;28;19913;-69
2022/08/18 10:45:20;;;;;;;;;;;15.90;99.90;;;;;;5055959;28;19913;-69
2022/08/18 10:47:59;;;;;;;;;;;16.00;99.90;;;;;;5055446;28;19924;-68
2022/08/18 10:50:27;;;;;;;;;;;15.90;99.90;;;;;;5055912;28;19912;-69
2022/08/18 10:53:20;;;;;;;;;;;16.00;99.90;;;;;;5055672;28;19908;-68
2022/08/18 10:55:47;;;;;;;;;;;15.90;99.90;;;;;;5047423;28;20287;-69
2022/08/18 10:58:29;;;;;;;;;;;15.90;99.90;;;;;;5055514;28;19928;-68
2022/08/18 11:01:07;;;;;;;;;;;15.90;99.90;;;;;;5055118;28;19920;-69
2022/08/18 11:03:54;;;;;;;;;;;15.90;99.90;;;;;;5055700;28;19916;-68
2022/08/18 11:06:23;;;;;;;;;;;15.90;99.90;;;;;;5055046;28;19913;-69
2022/08/18 11:08:51;;;;;;;;;;;15.90;99.90;;;;;;5055451;28;19995;-69
2022/08/18 11:11:25;;;;;;;;;;;16.00;99.90;;;;;;5055448;28;19915;-69
2022/08/18 11:13:57;;;;;;;;;;;16.00;99.90;;;;;;5055465;28;19909;-69
2022/08/18 11:16:43;;;;;;;;;;;16.00;99.90;;;;;;5054630;28;19964;-68
2022/08/18 11:19:11;;;;;;;;;;;16.00;99.90;;;;;;5055339;28;19916;-68
2022/08/18 11:21:38;;;;;;;;;;;16.00;99.90;;;;;;5055141;28;19963;-69
2022/08/18 11:24:05;;;;;;;;;;;16.00;99.90;;;;;;5053748;28;19948;-68
2022/08/18 11:26:33;;;;;;;;;;;16.00;99.90;;;;;;5055477;28;19909;-68
2022/08/18 11:29:01;;;;;;;;;;;15.90;99.90;;;;;;5055172;28;19909;-69
2022/08/18 11:31:28;;;;;;;;;;;15.90;99.90;;;;;;5054585;28;19966;-69
2022/08/18 11:33:54;;;;;;;;;;;15.90;99.90;;;;;;5055056;28;20382;-69
2022/08/18 11:36:29;;;;;;;;;;;15.80;99.90;;;;;;5054681;28;19974;-68
2022/08/18 11:38:57;;;;;;;;;;;15.80;99.90;;;;;;5054791;28;19924;-69
2022/08/18 11:41:27;;;;;;;;;;;15.70;99.90;;;;;;5054936;28;20351;-69
2022/08/18 11:44:03;;;;;;;;;;;15.80;99.90;;;;;;5054974;28;19958;-69
2022/08/18 11:46:32;;;;;;;;;;;15.80;99.90;;;;;;5054098;28;19920;-69
2022/08/18 11:49:00;;;;;;;;;;;15.80;99.90;;;;;;5054790;28;19955;-69
2022/08/18 11:51:28;;;;;;;;;;;15.80;99.90;;;;;;5054914;28;20272;-69
2022/08/18 11:53:59;;;;;;;;;;;15.80;99.90;;;;;;5054557;28;19908;-69
2022/08/18 11:56:28;;;;;;;;;;;15.70;99.90;;;;;;5054676;28;20003;-69
2022/08/18 11:59:00;;;;;;;;;;;15.70;99.90;;;;;;5054620;28;19917;-69
2022/08/18 12:01:30;;;;;;;;;;;15.60;99.90;;;;;;5054197;28;19913;-69
2022/08/18 12:04:12;;;;;;;;;;;15.60;99.90;;;;;;5054472;28;20252;-68
2022/08/18 12:06:40;;;;;;;;;;;15.50;99.90;;;;;;5054404;28;19971;-69
2022/08/18 12:09:15;;;;;;;;;;;15.50;99.90;;;;;;5054375;28;20286;-69
2022/08/18 12:11:50;;;;;;;;;;;15.40;99.90;;;;;;5054453;28;19909;-68
2022/08/18 12:14:18;;;;;;;;;;;15.40;99.90;;;;;;5054146;28;19994;-68
2022/08/18 12:16:44;;;;;;;;;;;15.60;99.90;;;;;;5053637;28;20365;-69
2022/08/18 12:19:12;;;;;;;;;;;15.60;99.90;;;;;;5054259;28;19917;-69
2022/08/18 12:21:43;;;;;;;;;;;15.60;99.90;;;;;;5053990;28;19913;-68
2022/08/18 12:24:16;;;;;;;;;;;15.60;99.90;;;;;;5053767;28;19932;-68
2022/08/18 12:26:43;;;;;;;;;;;15.60;99.90;;;;;;5054099;28;19971;-68
2022/08/18 12:29:10;;;;;;;;;;;15.70;99.90;;;;;;5054013;28;19909;-68
2022/08/18 12:31:37;;;;;;;;;;;15.60;99.90;;;;;;5053433;28;19954;-69
2022/08/18 12:34:03;;;;;;;;;;;15.60;99.90;;;;;;5053718;28;19909;-68
2022/08/18 12:36:31;;;;;;;;;;;15.60;99.90;;;;;;5053414;28;19916;-68
2022/08/18 12:38:58;;;;;;;;;;;15.70;99.90;;;;;;5053647;28;19919;-69
2022/08/18 12:41:25;;;;;;;;;;;15.60;99.90;;;;;;5053785;28;19986;-69
2022/08/18 12:43:52;;;;;;;;;;;15.60;99.90;;;;;;5053754;28;19916;-69
2022/08/18 12:46:19;;;;;;;;;;;15.60;99.90;;;;;;5052827;28;19999;-69
2022/08/18 12:48:46;;;;;;;;;;;15.70;99.90;;;;;;5053722;28;20375;-69
2022/08/18 12:51:13;;;;;;;;;;;15.60;99.90;;;;;;5053564;28;19909;-69
2022/08/18 12:53:40;;;;;;;;;;;15.60;99.90;;;;;;5053448;28;19909;-69
2022/08/18 12:56:20;;;;;;;;;;;15.60;99.90;;;;;;5053395;28;19913;-68
2022/08/18 12:58:48;;;;;;;;;;;15.60;99.90;;;;;;5053470;28;19920;-69
2022/08/18 13:01:16;;;;;;;;;;;15.60;99.90;;;;;;5052919;28;19909;-68
2022/08/18 13:03:44;;;;;;;;;;;15.50;99.90;;;;;;5053459;28;20275;-68
2022/08/18 13:06:10;;;;;;;;;;;15.50;99.90;;;;;;5053234;28;19954;-68
2022/08/18 13:08:37;;;;;;;;;;;15.50;99.90;;;;;;5053574;28;19919;-68
2022/08/18 13:11:09;;;;;;;;;;;15.50;99.90;;;;;;5058254;28;19915;-68
2022/08/18 13:13:39;;;;;;;;;;;15.50;99.90;;;;;;5071597;28;19915;-69
2022/08/18 13:16:09;;;;;;;;;;;15.50;99.90;;;;;;5073107;28;20325;-69
2022/08/18 13:18:36;;;;;;;;;;;15.50;99.90;;;;;;5073322;28;19999;-69
2022/08/18 13:21:04;;;;;;;;;;;15.50;99.90;;;;;;5073423;28;19983;-70
2022/08/18 13:23:31;;;;;;;;;;;15.50;99.90;;;;;;5073191;28;20260;-69
2022/08/18 13:25:59;;;;;;;;;;;15.40;99.90;;;;;;5073364;28;20359;-68
2022/08/18 13:28:26;;;;;;;;;;;15.40;99.90;;;;;;5073099;28;19909;-68
2022/08/18 13:30:53;;;;;;;;;;;15.50;99.90;;;;;;5073224;28;19909;-68
2022/08/18 13:33:19;;;;;;;;;;;15.40;99.90;;;;;;5072068;28;19916;-69
2022/08/18 13:35:46;;;;;;;;;;;15.40;99.90;;;;;;5073313;28;19935;-69
2022/08/18 13:38:14;;;;;;;;;;;15.40;99.90;;;;;;5072821;28;20371;-69
2022/08/18 13:40:41;;;;;;;;;;;15.40;99.90;;;;;;5073130;28;20007;-68
2022/08/18 13:43:08;;;;;;;;;;;15.30;99.90;;;;;;5073083;28;19966;-69
2022/08/18 13:45:35;;;;;;;;;;;15.30;99.90;;;;;;5072930;28;19965;-68
2022/08/18 13:48:02;;;;;;;;;;;15.30;99.90;;;;;;5075568;28;20312;-69
2022/08/18 13:50:28;;;;;;;;;;;15.30;99.90;;;;;;5077191;28;19999;-69
2022/08/18 13:52:56;;;;;;;;;;;15.30;99.90;;;;;;5077005;28;19931;-68
2022/08/18 13:55:25;;;;;;;;;;;15.30;99.90;;;;;;5077060;28;19908;-68
2022/08/18 13:57:51;;;;;;;;;;;15.30;99.90;;;;;;5076989;28;20317;-69
2022/08/18 14:00:19;;;;;;;;;;;15.40;99.90;;;;;;5076642;28;20007;-68
2022/08/18 14:02:55;;;;;;;;;;;15.40;99.90;;;;;;5077133;28;19909;-68
2022/08/18 14:05:22;;;;;;;;;;;15.40;99.90;;;;;;5076806;28;20389;-69
2022/08/18 14:07:49;;;;;;;;;;;15.40;99.90;;;;;;5075355;28;20008;-68
2022/08/18 14:10:16;;;;;;;;;;;15.30;99.90;;;;;;5076533;28;20375;-68
2022/08/18 14:12:44;;;;;;;;;;;15.40;99.90;;;;;;5076817;28;19923;-68
2022/08/18 14:15:13;;;;;;;;;;;15.30;99.90;;;;;;5076664;28;19944;-69
2022/08/18 14:17:40;;;;;;;;;;;15.30;99.90;;;;;;5076515;28;19962;-70
2022/08/18 14:28:23;;;;;;;;;;;15.20;99.90;;;;;;5076533;28;19962;-68
2022/08/18 14:30:50;;;;;;;;;;;15.30;99.90;;;;;;5076385;28;20413;-68
2022/08/18 14:33:18;;;;;;;;;;;15.20;99.90;;;;;;5076301;28;19909;-68
2022/08/18 14:35:46;;;;;;;;;;;15.30;99.90;;;;;;5076202;28;20011;-68
2022/08/18 14:38:14;;;;;;;;;;;15.30;99.90;;;;;;5075861;28;20270;-68
2022/08/18 14:40:42;;;;;;;;;;;15.30;99.90;;;;;;5076547;28;20239;-68
2022/08/18 14:43:10;;;;;;;;;;;15.30;99.90;;;;;;5076220;28;19913;-68
2022/08/18 14:45:37;;;;;;;;;;;15.20;99.90;;;;;;5076048;28;20003;-68
2022/08/18 14:48:04;;;;;;;;;;;15.30;99.90;;;;;;5075965;28;19913;-68
2022/08/18 14:50:32;;;;;;;;;;;15.20;99.90;;;;;;5075967;28;19909;-68
2022/08/18 14:52:59;;;;;;;;;;;15.20;99.90;;;;;;5075874;28;19954;-68
2022/08/18 14:55:26;;;;;;;;;;;15.20;99.90;;;;;;5075951;28;19915;-68
2022/08/18 14:57:53;;;;;;;;;;;15.20;99.90;;;;;;5075627;28;19909;-68
2022/08/18 15:00:19;;;;;;;;;;;15.20;99.90;;;;;;5075619;28;19923;-67